Time;durP1;ratioP1;P1;durP2;ratioP2;P2;SDS_P1;SDS_P2;PMS_P1;PMS_P2;Temp;Humidity;BMP_temperature;BMP_pressure;BME280_temperature;BME280_humidity;BME280_pressure;Samples;Min_cycle;Max_cycle;Signal;HPM_P1;HPM_P2
2022/12/05 20:35:27;;;;;;;;;;;17.80;83.10;;;;;;5090572;28;19923;-40
2022/12/05 20:37:52;;;;;;;;;;;17.90;82.80;;;;;;5089873;28;20008;-40
2022/12/05 20:40:17;;;;;;;;;;;17.90;82.60;;;;;;5087288;28;20350;-40
2022/12/05 20:42:43;;;;;;;;;;;18.00;82.40;;;;;;5093110;28;19951;-40
2022/12/05 20:45:08;;;;;;;;;;;18.10;82.30;;;;;;5094985;28;19981;-39
2022/12/05 20:47:34;;;;;;;;;;;18.10;82.20;;;;;;5092010;28;19948;-39
2022/12/05 20:50:00;;;;;;;;;;;18.10;82.10;;;;;;5091221;28;20538;-40
2022/12/05 20:52:25;;;;;;;;;;;18.20;81.90;;;;;;5092663;28;19995;-39
2022/12/05 20:54:51;;;;;;;;;;;18.30;81.90;;;;;;5096608;28;19916;-40
2022/12/05 20:57:16;;;;;;;;;;;18.30;80.40;;;;;;5098163;28;20527;-40
2022/12/05 20:59:42;;;;;;;;;;;18.20;79.80;;;;;;5110241;28;19961;-39
2022/12/05 21:02:07;;;;;;;;;;;18.30;80.60;;;;;;5092163;28;20256;-38
2022/12/05 21:04:37;;;;;;;;;;;18.30;81.00;;;;;;5104597;28;19972;-40
2022/12/05 21:07:03;;;;;;;;;;;18.30;81.10;;;;;;5088460;28;19960;-40
2022/12/05 21:09:30;;;;;;;;;;;18.40;81.40;;;;;;5089474;28;19912;-43
2022/12/05 21:11:56;;;;;;;;;;;18.40;81.50;;;;;;5085126;28;19995;-40
2022/12/05 21:14:22;;;;;;;;;;;18.50;81.50;;;;;;5092388;28;20035;-40
2022/12/05 21:16:47;;;;;;;;;;;18.50;81.50;;;;;;5089110;28;20007;-41
2022/12/05 21:19:13;;;;;;;;;;;18.50;81.50;;;;;;5089347;28;19955;-40
2022/12/05 21:21:38;;;;;;;;;;;18.50;81.60;;;;;;5089078;28;19912;-40
2022/12/05 21:24:04;;;;;;;;;;;18.50;81.60;;;;;;5089543;28;19908;-39
2022/12/05 21:26:30;;;;;;;;;;;18.50;81.70;;;;;;5089173;28;19953;-41
2022/12/05 21:28:57;;;;;;;;;;;18.40;81.60;;;;;;5088990;28;19961;-40
2022/12/05 21:31:24;;;;;;;;;;;18.50;81.80;;;;;;5088944;28;19908;-41
2022/12/05 21:33:54;;;;;;;;;;;18.50;81.90;;;;;;5097009;28;19920;-39
2022/12/05 21:36:20;;;;;;;;;;;18.50;82.10;;;;;;5110696;28;19908;-40
2022/12/05 21:38:46;;;;;;;;;;;18.50;82.10;;;;;;5110787;28;20015;-39
2022/12/05 21:41:11;;;;;;;;;;;18.50;82.10;;;;;;5110836;28;20007;-39
2022/12/05 21:43:37;;;;;;;;;;;18.50;82.20;;;;;;5110514;28;19957;-40
2022/12/05 21:46:03;;;;;;;;;;;18.40;82.10;;;;;;5100092;28;19962;-39
2022/12/05 21:48:29;;;;;;;;;;;18.40;82.20;;;;;;5096595;28;20358;-40
2022/12/05 21:50:55;;;;;;;;;;;18.50;82.20;;;;;;5097006;28;19908;-39
2022/12/05 21:53:21;;;;;;;;;;;18.50;82.30;;;;;;5096926;28;19937;-41
2022/12/05 21:55:46;;;;;;;;;;;18.50;82.30;;;;;;5096941;28;19967;-41
2022/12/05 21:58:12;;;;;;;;;;;18.50;82.30;;;;;;5096713;28;19915;-41
2022/12/05 22:00:38;;;;;;;;;;;18.40;82.30;;;;;;5096812;28;19952;-38
2022/12/05 22:03:04;;;;;;;;;;;18.50;82.30;;;;;;5096790;28;19912;-40
2022/12/05 22:05:30;;;;;;;;;;;18.50;82.30;;;;;;5097052;28;19991;-40
2022/12/05 22:07:55;;;;;;;;;;;18.50;82.30;;;;;;5096611;28;19958;-39
2022/12/05 22:10:21;;;;;;;;;;;18.50;82.30;;;;;;5096517;28;19909;-40
2022/12/05 22:12:46;;;;;;;;;;;18.50;82.30;;;;;;5096161;28;19912;-40
2022/12/05 22:15:12;;;;;;;;;;;18.50;82.30;;;;;;5096040;28;19969;-40
2022/12/05 22:17:37;;;;;;;;;;;18.50;82.30;;;;;;5096509;28;20398;-40
2022/12/05 22:20:03;;;;;;;;;;;18.50;82.30;;;;;;5096430;28;19958;-40
2022/12/05 22:22:29;;;;;;;;;;;18.60;82.30;;;;;;5096584;28;19955;-40
2022/12/05 22:24:54;;;;;;;;;;;18.60;82.30;;;;;;5096418;28;20331;-40
2022/12/05 22:27:20;;;;;;;;;;;18.60;82.30;;;;;;5096286;28;19940;-39
2022/12/05 22:29:45;;;;;;;;;;;18.60;82.40;;;;;;5096039;28;20369;-40
2022/12/05 22:32:11;;;;;;;;;;;18.60;82.40;;;;;;5095937;28;19961;-39
2022/12/05 22:34:36;;;;;;;;;;;18.60;82.40;;;;;;5095843;28;20336;-39
2022/12/05 22:37:02;;;;;;;;;;;18.60;82.40;;;;;;5096287;28;20006;-40
2022/12/05 22:39:27;;;;;;;;;;;18.60;82.50;;;;;;5095791;28;19916;-39
2022/12/05 22:41:53;;;;;;;;;;;18.60;82.60;;;;;;5095679;28;20290;-39
2022/12/05 22:44:18;;;;;;;;;;;18.60;82.50;;;;;;5095932;28;19908;-39
2022/12/05 22:46:44;;;;;;;;;;;18.60;82.50;;;;;;5095677;28;19915;-39
2022/12/05 22:49:10;;;;;;;;;;;18.60;82.50;;;;;;5095439;28;19908;-39
2022/12/05 22:51:36;;;;;;;;;;;18.70;82.50;;;;;;5095488;28;19914;-39
2022/12/05 22:54:01;;;;;;;;;;;18.60;82.60;;;;;;5095654;28;20337;-39
2022/12/05 22:56:27;;;;;;;;;;;18.60;82.50;;;;;;5094990;28;19962;-39
2022/12/05 22:58:54;;;;;;;;;;;18.60;82.60;;;;;;5095378;28;20346;-39
2022/12/05 23:01:20;;;;;;;;;;;18.60;82.60;;;;;;5077522;28;19958;-39
2022/12/05 23:03:47;;;;;;;;;;;18.60;82.60;;;;;;5095278;28;19944;-39
2022/12/05 23:06:13;;;;;;;;;;;18.60;82.60;;;;;;5095553;28;19915;-40
2022/12/05 23:08:40;;;;;;;;;;;18.60;82.70;;;;;;5095546;28;19916;-39
2022/12/05 23:11:05;;;;;;;;;;;18.60;82.70;;;;;;5095401;28;19908;-39
2022/12/05 23:13:31;;;;;;;;;;;18.60;82.80;;;;;;5095012;28;19966;-39
2022/12/05 23:15:57;;;;;;;;;;;18.60;82.80;;;;;;5094868;28;19923;-39
2022/12/05 23:18:22;;;;;;;;;;;18.60;82.80;;;;;;5094911;28;19908;-39
2022/12/05 23:20:48;;;;;;;;;;;18.60;82.80;;;;;;5094892;28;19908;-39
2022/12/05 23:23:13;;;;;;;;;;;18.60;82.80;;;;;;5094832;28;20306;-39
2022/12/05 23:25:39;;;;;;;;;;;18.60;82.80;;;;;;5094944;28;20255;-39
2022/12/05 23:28:04;;;;;;;;;;;18.60;82.80;;;;;;5095161;28;19995;-39
2022/12/05 23:30:30;;;;;;;;;;;18.60;83.10;;;;;;5094800;28;20358;-39
2022/12/05 23:32:55;;;;;;;;;;;18.60;82.90;;;;;;5076783;28;19958;-39
2022/12/05 23:35:20;;;;;;;;;;;18.60;82.80;;;;;;5076638;28;19920;-39
2022/12/05 23:37:47;;;;;;;;;;;18.70;82.90;;;;;;5094952;28;19912;-39
2022/12/05 23:40:13;;;;;;;;;;;18.70;82.90;;;;;;5094544;28;20377;-39
2022/12/05 23:42:39;;;;;;;;;;;18.70;82.80;;;;;;5094576;28;20002;-39
2022/12/05 23:45:05;;;;;;;;;;;18.70;82.80;;;;;;5094828;28;19955;-40
2022/12/05 23:47:31;;;;;;;;;;;18.70;82.90;;;;;;5094863;28;19908;-39
2022/12/05 23:49:56;;;;;;;;;;;18.70;82.90;;;;;;5094467;28;19919;-39
2022/12/05 23:52:22;;;;;;;;;;;18.70;83.10;;;;;;5094426;28;19952;-39
2022/12/05 23:54:47;;;;;;;;;;;18.70;83.10;;;;;;5094549;28;19916;-39
2022/12/05 23:57:13;;;;;;;;;;;18.70;83.10;;;;;;5094917;28;19916;-39
2022/12/05 23:59:38;;;;;;;;;;;18.70;83.30;;;;;;5094589;28;19909;-39
